sensor_id;sensor_type;location;lat;lon;timestamp;P1;durP1;ratioP1;P2;durP2;ratioP2
5225;SDS011;2632;51.666;7.146;2023-12-28T00:04:12;31.20;;;22.10;;
5225;SDS011;2632;51.666;7.146;2023-12-28T00:06:39;30.00;;;21.30;;
5225;SDS011;2632;51.666;7.146;2023-12-28T00:09:07;31.40;;;22.20;;
5225;SDS011;2632;51.666;7.146;2023-12-28T00:11:37;30.15;;;21.20;;
5225;SDS011;2632;51.666;7.146;2023-12-28T00:14:04;31.05;;;22.00;;
5225;SDS011;2632;51.666;7.146;2023-12-28T00:16:31;30.50;;;21.50;;
5225;SDS011;2632;51.666;7.146;2023-12-28T00:18:59;30.50;;;21.50;;
5225;SDS011;2632;51.666;7.146;2023-12-28T00:21:28;30.50;;;21.60;;
5225;SDS011;2632;51.666;7.146;2023-12-28T00:23:55;30.30;;;21.50;;
5225;SDS011;2632;51.666;7.146;2023-12-28T00:26:22;30.20;;;21.40;;
5225;SDS011;2632;51.666;7.146;2023-12-28T00:28:48;32.95;;;23.20;;
5225;SDS011;2632;51.666;7.146;2023-12-28T00:31:15;30.25;;;21.50;;
5225;SDS011;2632;51.666;7.146;2023-12-28T00:36:09;30.10;;;21.40;;
5225;SDS011;2632;51.666;7.146;2023-12-28T00:38:35;30.00;;;21.25;;
5225;SDS011;2632;51.666;7.146;2023-12-28T00:43:29;32.40;;;22.90;;
5225;SDS011;2632;51.666;7.146;2023-12-28T00:45:55;30.40;;;21.60;;
5225;SDS011;2632;51.666;7.146;2023-12-28T00:48:22;30.00;;;21.25;;
5225;SDS011;2632;51.666;7.146;2023-12-28T00:50:49;30.00;;;21.30;;
5225;SDS011;2632;51.666;7.146;2023-12-28T00:53:15;34.10;;;23.90;;
5225;SDS011;2632;51.666;7.146;2023-12-28T00:55:42;29.90;;;21.20;;
5225;SDS011;2632;51.666;7.146;2023-12-28T00:58:08;30.30;;;21.60;;
5225;SDS011;2632;51.666;7.146;2023-12-28T01:00:35;30.10;;;21.40;;
5225;SDS011;2632;51.666;7.146;2023-12-28T01:03:02;31.05;;;21.90;;
5225;SDS011;2632;51.666;7.146;2023-12-28T01:05:29;30.90;;;21.80;;
5225;SDS011;2632;51.666;7.146;2023-12-28T01:07:56;30.10;;;21.30;;
5225;SDS011;2632;51.666;7.146;2023-12-28T01:10:22;30.30;;;21.50;;
5225;SDS011;2632;51.666;7.146;2023-12-28T01:12:49;32.00;;;22.60;;
5225;SDS011;2632;51.666;7.146;2023-12-28T01:15:16;30.10;;;21.50;;
5225;SDS011;2632;51.666;7.146;2023-12-28T01:17:44;32.45;;;22.60;;
5225;SDS011;2632;51.666;7.146;2023-12-28T01:20:11;30.30;;;21.40;;
5225;SDS011;2632;51.666;7.146;2023-12-28T01:22:38;30.50;;;21.70;;
5225;SDS011;2632;51.666;7.146;2023-12-28T01:25:04;34.55;;;24.05;;
5225;SDS011;2632;51.666;7.146;2023-12-28T01:27:31;30.15;;;21.15;;
5225;SDS011;2632;51.666;7.146;2023-12-28T01:29:58;30.50;;;21.50;;
5225;SDS011;2632;51.666;7.146;2023-12-28T01:32:24;30.20;;;21.40;;
5225;SDS011;2632;51.666;7.146;2023-12-28T01:34:51;32.85;;;23.25;;
5225;SDS011;2632;51.666;7.146;2023-12-28T01:37:18;34.50;;;24.20;;
5225;SDS011;2632;51.666;7.146;2023-12-28T01:39:44;31.10;;;21.95;;
5225;SDS011;2632;51.666;7.146;2023-12-28T01:42:11;30.30;;;21.40;;
5225;SDS011;2632;51.666;7.146;2023-12-28T01:44:38;31.40;;;22.20;;
5225;SDS011;2632;51.666;7.146;2023-12-28T01:47:05;31.00;;;22.00;;
5225;SDS011;2632;51.666;7.146;2023-12-28T01:49:32;34.30;;;23.90;;
5225;SDS011;2632;51.666;7.146;2023-12-28T01:52:00;30.20;;;21.40;;
5225;SDS011;2632;51.666;7.146;2023-12-28T01:54:28;30.00;;;21.20;;
5225;SDS011;2632;51.666;7.146;2023-12-28T01:56:56;30.70;;;21.70;;
5225;SDS011;2632;51.666;7.146;2023-12-28T01:59:25;31.20;;;22.20;;
5225;SDS011;2632;51.666;7.146;2023-12-28T02:01:51;31.65;;;22.30;;
5225;SDS011;2632;51.666;7.146;2023-12-28T02:04:18;32.00;;;22.60;;
5225;SDS011;2632;51.666;7.146;2023-12-28T02:06:53;30.40;;;21.50;;
5225;SDS011;2632;51.666;7.146;2023-12-28T02:09:23;30.55;;;21.40;;
5225;SDS011;2632;51.666;7.146;2023-12-28T02:11:50;31.50;;;22.20;;
5225;SDS011;2632;51.666;7.146;2023-12-28T02:14:18;30.80;;;21.70;;
5225;SDS011;2632;51.666;7.146;2023-12-28T02:16:46;30.80;;;21.70;;
5225;SDS011;2632;51.666;7.146;2023-12-28T02:19:38;31.10;;;21.80;;
5225;SDS011;2632;51.666;7.146;2023-12-28T02:22:12;31.40;;;22.00;;
5225;SDS011;2632;51.666;7.146;2023-12-28T02:27:32;31.15;;;21.85;;
5225;SDS011;2632;51.666;7.146;2023-12-28T02:30:10;31.15;;;22.00;;
5225;SDS011;2632;51.666;7.146;2023-12-28T02:38:18;30.70;;;21.70;;
5225;SDS011;2632;51.666;7.146;2023-12-28T02:40:46;31.40;;;22.10;;
5225;SDS011;2632;51.666;7.146;2023-12-28T02:43:15;30.70;;;21.60;;
5225;SDS011;2632;51.666;7.146;2023-12-28T02:45:41;31.50;;;22.10;;
5225;SDS011;2632;51.666;7.146;2023-12-28T02:48:08;31.60;;;22.20;;
5225;SDS011;2632;51.666;7.146;2023-12-28T02:50:35;30.70;;;21.70;;
5225;SDS011;2632;51.666;7.146;2023-12-28T02:53:02;30.30;;;21.40;;
5225;SDS011;2632;51.666;7.146;2023-12-28T02:57:56;30.85;;;21.90;;
5225;SDS011;2632;51.666;7.146;2023-12-28T03:00:27;30.75;;;21.85;;
5225;SDS011;2632;51.666;7.146;2023-12-28T03:02:55;30.40;;;21.40;;
5225;SDS011;2632;51.666;7.146;2023-12-28T03:05:22;31.80;;;22.30;;
5225;SDS011;2632;51.666;7.146;2023-12-28T03:07:49;30.70;;;21.70;;
5225;SDS011;2632;51.666;7.146;2023-12-28T03:10:16;31.37;;;22.10;;
5225;SDS011;2632;51.666;7.146;2023-12-28T03:12:42;32.20;;;22.60;;
5225;SDS011;2632;51.666;7.146;2023-12-28T03:15:09;31.00;;;21.90;;
5225;SDS011;2632;51.666;7.146;2023-12-28T03:17:36;30.75;;;21.70;;
5225;SDS011;2632;51.666;7.146;2023-12-28T03:20:03;30.70;;;21.60;;
5225;SDS011;2632;51.666;7.146;2023-12-28T03:22:31;30.90;;;21.70;;
5225;SDS011;2632;51.666;7.146;2023-12-28T03:24:57;31.40;;;21.90;;
5225;SDS011;2632;51.666;7.146;2023-12-28T03:27:24;30.80;;;21.60;;
5225;SDS011;2632;51.666;7.146;2023-12-28T03:29:51;31.30;;;22.00;;
5225;SDS011;2632;51.666;7.146;2023-12-28T03:32:17;31.50;;;22.10;;
5225;SDS011;2632;51.666;7.146;2023-12-28T03:34:44;31.20;;;21.80;;
5225;SDS011;2632;51.666;7.146;2023-12-28T03:37:11;36.47;;;24.98;;
5225;SDS011;2632;51.666;7.146;2023-12-28T03:39:38;31.10;;;21.70;;
5225;SDS011;2632;51.666;7.146;2023-12-28T03:42:04;31.45;;;22.00;;
5225;SDS011;2632;51.666;7.146;2023-12-28T03:44:31;31.80;;;22.10;;
5225;SDS011;2632;51.666;7.146;2023-12-28T03:46:58;32.80;;;22.90;;
5225;SDS011;2632;51.666;7.146;2023-12-28T03:49:24;34.75;;;24.20;;
5225;SDS011;2632;51.666;7.146;2023-12-28T03:51:51;33.10;;;23.20;;
5225;SDS011;2632;51.666;7.146;2023-12-28T03:54:18;32.43;;;22.53;;
5225;SDS011;2632;51.666;7.146;2023-12-28T03:56:46;33.10;;;22.95;;
5225;SDS011;2632;51.666;7.146;2023-12-28T03:59:13;33.30;;;23.00;;
5225;SDS011;2632;51.666;7.146;2023-12-28T04:01:43;35.70;;;24.55;;
5225;SDS011;2632;51.666;7.146;2023-12-28T04:04:10;33.10;;;23.00;;
5225;SDS011;2632;51.666;7.146;2023-12-28T04:06:37;31.50;;;22.05;;
5225;SDS011;2632;51.666;7.146;2023-12-28T04:09:05;31.70;;;22.30;;
5225;SDS011;2632;51.666;7.146;2023-12-28T04:11:31;32.60;;;23.00;;
5225;SDS011;2632;51.666;7.146;2023-12-28T04:13:58;35.53;;;24.92;;
5225;SDS011;2632;51.666;7.146;2023-12-28T04:16:25;31.90;;;22.50;;
5225;SDS011;2632;51.666;7.146;2023-12-28T04:18:52;31.40;;;22.15;;
5225;SDS011;2632;51.666;7.146;2023-12-28T04:21:18;31.10;;;21.60;;
5225;SDS011;2632;51.666;7.146;2023-12-28T04:23:45;32.20;;;22.40;;
5225;SDS011;2632;51.666;7.146;2023-12-28T04:26:12;32.05;;;22.30;;
5225;SDS011;2632;51.666;7.146;2023-12-28T04:28:39;31.35;;;21.95;;
5225;SDS011;2632;51.666;7.146;2023-12-28T04:31:06;33.40;;;23.40;;
5225;SDS011;2632;51.666;7.146;2023-12-28T04:33:33;33.90;;;23.70;;
5225;SDS011;2632;51.666;7.146;2023-12-28T04:36:01;32.20;;;22.60;;
5225;SDS011;2632;51.666;7.146;2023-12-28T04:38:31;31.95;;;22.45;;
5225;SDS011;2632;51.666;7.146;2023-12-28T04:40:58;33.70;;;23.50;;
5225;SDS011;2632;51.666;7.146;2023-12-28T04:43:27;34.60;;;24.30;;
5225;SDS011;2632;51.666;7.146;2023-12-28T04:45:54;31.85;;;22.45;;
5225;SDS011;2632;51.666;7.146;2023-12-28T04:48:21;31.50;;;22.10;;
5225;SDS011;2632;51.666;7.146;2023-12-28T04:50:50;31.90;;;22.43;;
5225;SDS011;2632;51.666;7.146;2023-12-28T04:53:19;35.15;;;24.25;;
5225;SDS011;2632;51.666;7.146;2023-12-28T04:55:45;31.35;;;22.05;;
5225;SDS011;2632;51.666;7.146;2023-12-28T04:58:12;31.70;;;22.25;;
5225;SDS011;2632;51.666;7.146;2023-12-28T05:00:38;31.10;;;22.00;;
5225;SDS011;2632;51.666;7.146;2023-12-28T05:03:05;32.20;;;22.70;;
5225;SDS011;2632;51.666;7.146;2023-12-28T05:05:32;33.10;;;23.00;;
5225;SDS011;2632;51.666;7.146;2023-12-28T05:08:00;33.30;;;23.10;;
5225;SDS011;2632;51.666;7.146;2023-12-28T05:10:27;34.70;;;23.40;;
5225;SDS011;2632;51.666;7.146;2023-12-28T05:12:53;36.90;;;24.50;;
5225;SDS011;2632;51.666;7.146;2023-12-28T05:15:27;33.10;;;22.20;;
5225;SDS011;2632;51.666;7.146;2023-12-28T05:17:54;34.90;;;23.50;;
5225;SDS011;2632;51.666;7.146;2023-12-28T05:20:21;33.57;;;22.67;;
5225;SDS011;2632;51.666;7.146;2023-12-28T05:22:48;33.75;;;22.65;;
5225;SDS011;2632;51.666;7.146;2023-12-28T05:25:15;35.10;;;23.65;;
5225;SDS011;2632;51.666;7.146;2023-12-28T05:27:41;33.30;;;22.50;;
5225;SDS011;2632;51.666;7.146;2023-12-28T05:30:09;33.85;;;23.05;;
5225;SDS011;2632;51.666;7.146;2023-12-28T05:32:37;33.80;;;22.80;;
5225;SDS011;2632;51.666;7.146;2023-12-28T05:35:04;33.60;;;22.70;;
5225;SDS011;2632;51.666;7.146;2023-12-28T05:37:31;37.95;;;25.15;;
5225;SDS011;2632;51.666;7.146;2023-12-28T05:39:58;34.00;;;22.60;;
5225;SDS011;2632;51.666;7.146;2023-12-28T05:42:24;35.35;;;24.00;;
5225;SDS011;2632;51.666;7.146;2023-12-28T05:44:51;35.75;;;24.33;;
5225;SDS011;2632;51.666;7.146;2023-12-28T05:47:18;33.05;;;22.10;;
5225;SDS011;2632;51.666;7.146;2023-12-28T05:49:45;36.85;;;25.02;;
5225;SDS011;2632;51.666;7.146;2023-12-28T05:52:12;34.45;;;23.38;;
5225;SDS011;2632;51.666;7.146;2023-12-28T05:54:41;33.70;;;22.80;;
5225;SDS011;2632;51.666;7.146;2023-12-28T05:57:09;34.90;;;23.75;;
5225;SDS011;2632;51.666;7.146;2023-12-28T05:59:39;36.00;;;24.35;;
5225;SDS011;2632;51.666;7.146;2023-12-28T06:02:06;33.80;;;22.90;;
5225;SDS011;2632;51.666;7.146;2023-12-28T06:04:33;34.80;;;23.55;;
5225;SDS011;2632;51.666;7.146;2023-12-28T06:07:02;35.05;;;23.55;;
5225;SDS011;2632;51.666;7.146;2023-12-28T06:09:30;34.30;;;23.40;;
5225;SDS011;2632;51.666;7.146;2023-12-28T06:11:56;35.10;;;23.55;;
5225;SDS011;2632;51.666;7.146;2023-12-28T06:14:23;34.45;;;23.25;;
5225;SDS011;2632;51.666;7.146;2023-12-28T06:16:50;34.45;;;23.25;;
5225;SDS011;2632;51.666;7.146;2023-12-28T06:19:16;36.10;;;24.60;;
5225;SDS011;2632;51.666;7.146;2023-12-28T06:21:43;36.42;;;24.73;;
5225;SDS011;2632;51.666;7.146;2023-12-28T06:24:10;38.50;;;26.10;;
5225;SDS011;2632;51.666;7.146;2023-12-28T06:26:43;35.70;;;24.35;;
5225;SDS011;2632;51.666;7.146;2023-12-28T06:29:10;39.05;;;26.15;;
5225;SDS011;2632;51.666;7.146;2023-12-28T06:31:37;34.40;;;23.10;;
5225;SDS011;2632;51.666;7.146;2023-12-28T06:34:04;36.80;;;24.80;;
5225;SDS011;2632;51.666;7.146;2023-12-28T06:36:34;34.35;;;23.45;;
5225;SDS011;2632;51.666;7.146;2023-12-28T06:39:01;34.37;;;23.30;;
5225;SDS011;2632;51.666;7.146;2023-12-28T06:41:28;35.63;;;23.93;;
5225;SDS011;2632;51.666;7.146;2023-12-28T06:43:55;35.45;;;24.00;;
5225;SDS011;2632;51.666;7.146;2023-12-28T06:46:22;33.67;;;22.90;;
5225;SDS011;2632;51.666;7.146;2023-12-28T06:48:48;33.70;;;22.90;;
5225;SDS011;2632;51.666;7.146;2023-12-28T06:51:16;34.80;;;23.70;;
5225;SDS011;2632;51.666;7.146;2023-12-28T06:53:47;34.80;;;23.40;;
5225;SDS011;2632;51.666;7.146;2023-12-28T06:56:15;34.00;;;23.10;;
5225;SDS011;2632;51.666;7.146;2023-12-28T06:58:42;33.90;;;23.00;;
5225;SDS011;2632;51.666;7.146;2023-12-28T07:01:09;37.08;;;25.20;;
5225;SDS011;2632;51.666;7.146;2023-12-28T07:03:37;35.55;;;24.10;;
5225;SDS011;2632;51.666;7.146;2023-12-28T07:06:04;33.70;;;22.90;;
5225;SDS011;2632;51.666;7.146;2023-12-28T07:08:31;34.40;;;23.25;;
5225;SDS011;2632;51.666;7.146;2023-12-28T07:11:01;35.10;;;23.85;;
5225;SDS011;2632;51.666;7.146;2023-12-28T07:13:29;38.35;;;25.50;;
5225;SDS011;2632;51.666;7.146;2023-12-28T07:15:56;33.90;;;22.93;;
5225;SDS011;2632;51.666;7.146;2023-12-28T07:18:25;33.90;;;23.00;;
5225;SDS011;2632;51.666;7.146;2023-12-28T07:20:52;37.30;;;25.00;;
5225;SDS011;2632;51.666;7.146;2023-12-28T07:23:19;35.20;;;23.50;;
5225;SDS011;2632;51.666;7.146;2023-12-28T07:25:45;38.15;;;25.15;;
5225;SDS011;2632;51.666;7.146;2023-12-28T07:28:12;33.20;;;22.33;;
5225;SDS011;2632;51.666;7.146;2023-12-28T07:30:39;34.80;;;23.40;;
5225;SDS011;2632;51.666;7.146;2023-12-28T07:33:07;33.43;;;22.53;;
5225;SDS011;2632;51.666;7.146;2023-12-28T07:35:34;34.50;;;23.20;;
5225;SDS011;2632;51.666;7.146;2023-12-28T07:38:00;35.35;;;23.85;;
5225;SDS011;2632;51.666;7.146;2023-12-28T07:40:27;34.80;;;23.40;;
5225;SDS011;2632;51.666;7.146;2023-12-28T07:42:54;34.60;;;23.20;;
5225;SDS011;2632;51.666;7.146;2023-12-28T07:45:21;34.80;;;23.20;;
5225;SDS011;2632;51.666;7.146;2023-12-28T07:47:50;34.95;;;23.45;;
5225;SDS011;2632;51.666;7.146;2023-12-28T07:50:18;34.30;;;23.10;;
5225;SDS011;2632;51.666;7.146;2023-12-28T07:52:45;34.20;;;22.90;;
5225;SDS011;2632;51.666;7.146;2023-12-28T07:55:15;35.10;;;23.60;;
5225;SDS011;2632;51.666;7.146;2023-12-28T07:57:42;34.45;;;23.00;;
5225;SDS011;2632;51.666;7.146;2023-12-28T08:00:09;35.20;;;23.60;;
5225;SDS011;2632;51.666;7.146;2023-12-28T08:02:37;34.70;;;23.10;;
5225;SDS011;2632;51.666;7.146;2023-12-28T08:05:04;35.70;;;23.60;;
5225;SDS011;2632;51.666;7.146;2023-12-28T08:07:31;34.20;;;22.90;;
5225;SDS011;2632;51.666;7.146;2023-12-28T08:09:58;34.50;;;23.10;;
5225;SDS011;2632;51.666;7.146;2023-12-28T08:12:25;33.90;;;22.70;;
5225;SDS011;2632;51.666;7.146;2023-12-28T08:14:54;33.90;;;22.70;;
5225;SDS011;2632;51.666;7.146;2023-12-28T08:17:21;36.15;;;23.80;;
5225;SDS011;2632;51.666;7.146;2023-12-28T08:19:48;35.10;;;23.43;;
5225;SDS011;2632;51.666;7.146;2023-12-28T08:22:15;34.70;;;23.10;;
5225;SDS011;2632;51.666;7.146;2023-12-28T08:24:42;35.10;;;23.60;;
5225;SDS011;2632;51.666;7.146;2023-12-28T08:27:09;34.75;;;23.35;;
5225;SDS011;2632;51.666;7.146;2023-12-28T08:29:35;36.40;;;24.20;;
5225;SDS011;2632;51.666;7.146;2023-12-28T08:32:02;34.65;;;23.35;;
5225;SDS011;2632;51.666;7.146;2023-12-28T08:34:29;33.75;;;22.70;;
5225;SDS011;2632;51.666;7.146;2023-12-28T08:36:56;38.00;;;25.40;;
5225;SDS011;2632;51.666;7.146;2023-12-28T08:39:23;33.80;;;22.75;;
5225;SDS011;2632;51.666;7.146;2023-12-28T08:41:50;35.25;;;23.60;;
5225;SDS011;2632;51.666;7.146;2023-12-28T08:44:16;34.90;;;23.40;;
5225;SDS011;2632;51.666;7.146;2023-12-28T08:46:43;9.35;;;2.88;;
5225;SDS011;2632;51.666;7.146;2023-12-28T08:49:10;11.82;;;2.60;;
5225;SDS011;2632;51.666;7.146;2023-12-28T08:51:37;6.65;;;2.60;;
5225;SDS011;2632;51.666;7.146;2023-12-28T08:54:06;9.40;;;2.30;;
5225;SDS011;2632;51.666;7.146;2023-12-28T08:56:33;37.90;;;21.70;;
5225;SDS011;2632;51.666;7.146;2023-12-28T08:58:59;37.63;;;24.73;;
5225;SDS011;2632;51.666;7.146;2023-12-28T09:01:26;38.95;;;26.10;;
5225;SDS011;2632;51.666;7.146;2023-12-28T09:03:53;33.00;;;22.60;;
5225;SDS011;2632;51.666;7.146;2023-12-28T09:06:20;33.25;;;22.55;;
5225;SDS011;2632;51.666;7.146;2023-12-28T09:08:49;32.50;;;22.10;;
5225;SDS011;2632;51.666;7.146;2023-12-28T09:11:17;32.50;;;22.10;;
5225;SDS011;2632;51.666;7.146;2023-12-28T09:13:44;37.80;;;25.60;;
5225;SDS011;2632;51.666;7.146;2023-12-28T09:16:12;32.80;;;22.30;;
5225;SDS011;2632;51.666;7.146;2023-12-28T09:18:41;33.55;;;22.75;;
5225;SDS011;2632;51.666;7.146;2023-12-28T09:21:08;32.50;;;22.00;;
5225;SDS011;2632;51.666;7.146;2023-12-28T09:23:36;33.15;;;22.50;;
5225;SDS011;2632;51.666;7.146;2023-12-28T09:26:03;33.10;;;22.40;;
5225;SDS011;2632;51.666;7.146;2023-12-28T09:28:31;33.00;;;22.50;;
5225;SDS011;2632;51.666;7.146;2023-12-28T09:30:59;34.50;;;23.40;;
5225;SDS011;2632;51.666;7.146;2023-12-28T09:33:27;35.10;;;23.77;;
5225;SDS011;2632;51.666;7.146;2023-12-28T09:35:54;34.40;;;23.40;;
5225;SDS011;2632;51.666;7.146;2023-12-28T09:38:20;33.40;;;22.60;;
5225;SDS011;2632;51.666;7.146;2023-12-28T09:40:50;35.40;;;23.90;;
5225;SDS011;2632;51.666;7.146;2023-12-28T09:43:23;35.50;;;23.97;;
5225;SDS011;2632;51.666;7.146;2023-12-28T09:45:51;33.80;;;23.15;;
5225;SDS011;2632;51.666;7.146;2023-12-28T09:48:20;33.57;;;22.90;;
5225;SDS011;2632;51.666;7.146;2023-12-28T09:50:51;34.67;;;23.67;;
5225;SDS011;2632;51.666;7.146;2023-12-28T09:53:22;36.50;;;24.55;;
5225;SDS011;2632;51.666;7.146;2023-12-28T09:55:49;34.80;;;23.80;;
5225;SDS011;2632;51.666;7.146;2023-12-28T09:58:18;34.70;;;23.70;;
5225;SDS011;2632;51.666;7.146;2023-12-28T10:00:46;33.30;;;22.80;;
5225;SDS011;2632;51.666;7.146;2023-12-28T10:03:15;33.95;;;23.45;;
5225;SDS011;2632;51.666;7.146;2023-12-28T10:05:46;33.90;;;23.50;;
5225;SDS011;2632;51.666;7.146;2023-12-28T10:08:14;33.50;;;22.80;;
5225;SDS011;2632;51.666;7.146;2023-12-28T10:10:42;35.30;;;23.80;;
5225;SDS011;2632;51.666;7.146;2023-12-28T10:13:12;35.35;;;23.75;;
5225;SDS011;2632;51.666;7.146;2023-12-28T10:15:42;33.20;;;22.40;;
5225;SDS011;2632;51.666;7.146;2023-12-28T10:18:10;33.10;;;22.30;;
5225;SDS011;2632;51.666;7.146;2023-12-28T10:20:37;37.20;;;25.20;;
5225;SDS011;2632;51.666;7.146;2023-12-28T10:23:05;34.40;;;23.00;;
5225;SDS011;2632;51.666;7.146;2023-12-28T10:25:33;38.85;;;25.90;;
5225;SDS011;2632;51.666;7.146;2023-12-28T10:28:04;35.00;;;23.90;;
5225;SDS011;2632;51.666;7.146;2023-12-28T10:30:34;33.70;;;23.03;;
5225;SDS011;2632;51.666;7.146;2023-12-28T10:33:04;33.10;;;22.50;;
5225;SDS011;2632;51.666;7.146;2023-12-28T10:35:32;34.70;;;23.60;;
5225;SDS011;2632;51.666;7.146;2023-12-28T10:38:00;33.20;;;22.70;;
5225;SDS011;2632;51.666;7.146;2023-12-28T10:40:30;32.90;;;22.50;;
5225;SDS011;2632;51.666;7.146;2023-12-28T10:42:58;32.90;;;22.45;;
5225;SDS011;2632;51.666;7.146;2023-12-28T10:45:29;32.60;;;22.23;;
5225;SDS011;2632;51.666;7.146;2023-12-28T10:48:01;33.05;;;22.45;;
5225;SDS011;2632;51.666;7.146;2023-12-28T10:50:46;33.60;;;23.00;;
5225;SDS011;2632;51.666;7.146;2023-12-28T10:56:10;33.20;;;22.80;;
5225;SDS011;2632;51.666;7.146;2023-12-28T10:59:04;32.70;;;22.30;;
5225;SDS011;2632;51.666;7.146;2023-12-28T11:01:51;36.20;;;24.60;;
5225;SDS011;2632;51.666;7.146;2023-12-28T11:04:34;32.60;;;22.20;;
5225;SDS011;2632;51.666;7.146;2023-12-28T11:07:09;32.40;;;22.10;;
5225;SDS011;2632;51.666;7.146;2023-12-28T11:09:38;33.60;;;23.10;;
5225;SDS011;2632;51.666;7.146;2023-12-28T11:12:08;33.35;;;22.80;;
5225;SDS011;2632;51.666;7.146;2023-12-28T11:14:38;33.60;;;23.00;;
5225;SDS011;2632;51.666;7.146;2023-12-28T11:17:06;39.95;;;26.35;;
5225;SDS011;2632;51.666;7.146;2023-12-28T11:19:33;34.70;;;23.30;;
5225;SDS011;2632;51.666;7.146;2023-12-28T11:22:01;33.35;;;22.90;;
5225;SDS011;2632;51.666;7.146;2023-12-28T11:24:30;33.75;;;23.25;;
5225;SDS011;2632;51.666;7.146;2023-12-28T11:26:58;32.60;;;22.30;;
5225;SDS011;2632;51.666;7.146;2023-12-28T11:29:24;34.10;;;23.30;;
5225;SDS011;2632;51.666;7.146;2023-12-28T11:31:51;32.75;;;22.30;;
5225;SDS011;2632;51.666;7.146;2023-12-28T11:34:19;33.80;;;23.00;;
5225;SDS011;2632;51.666;7.146;2023-12-28T11:36:51;33.10;;;22.70;;
5225;SDS011;2632;51.666;7.146;2023-12-28T11:39:30;32.95;;;22.75;;
5225;SDS011;2632;51.666;7.146;2023-12-28T11:42:05;33.40;;;22.80;;
5225;SDS011;2632;51.666;7.146;2023-12-28T11:44:37;33.20;;;22.90;;
5225;SDS011;2632;51.666;7.146;2023-12-28T11:47:15;34.13;;;22.93;;
5225;SDS011;2632;51.666;7.146;2023-12-28T11:49:47;35.60;;;24.30;;
5225;SDS011;2632;51.666;7.146;2023-12-28T11:52:24;33.40;;;22.75;;
5225;SDS011;2632;51.666;7.146;2023-12-28T11:54:55;33.10;;;22.47;;
5225;SDS011;2632;51.666;7.146;2023-12-28T11:57:22;33.30;;;22.60;;
5225;SDS011;2632;51.666;7.146;2023-12-28T11:59:53;32.65;;;22.20;;
5225;SDS011;2632;51.666;7.146;2023-12-28T12:02:21;33.20;;;22.57;;
5225;SDS011;2632;51.666;7.146;2023-12-28T12:04:48;34.30;;;23.30;;
5225;SDS011;2632;51.666;7.146;2023-12-28T12:07:17;32.80;;;22.50;;
5225;SDS011;2632;51.666;7.146;2023-12-28T12:09:44;35.30;;;23.80;;
5225;SDS011;2632;51.666;7.146;2023-12-28T12:12:11;33.90;;;23.10;;
5225;SDS011;2632;51.666;7.146;2023-12-28T12:14:38;32.95;;;22.50;;
5225;SDS011;2632;51.666;7.146;2023-12-28T12:17:05;34.40;;;23.60;;
5225;SDS011;2632;51.666;7.146;2023-12-28T12:19:32;34.40;;;23.70;;
5225;SDS011;2632;51.666;7.146;2023-12-28T12:21:59;33.90;;;23.10;;
5225;SDS011;2632;51.666;7.146;2023-12-28T12:24:25;32.73;;;22.40;;
5225;SDS011;2632;51.666;7.146;2023-12-28T12:26:52;34.30;;;23.45;;
5225;SDS011;2632;51.666;7.146;2023-12-28T12:29:19;34.20;;;23.40;;
5225;SDS011;2632;51.666;7.146;2023-12-28T12:31:53;33.80;;;23.20;;
5225;SDS011;2632;51.666;7.146;2023-12-28T12:34:20;33.70;;;23.10;;
5225;SDS011;2632;51.666;7.146;2023-12-28T12:36:47;33.70;;;23.00;;
5225;SDS011;2632;51.666;7.146;2023-12-28T12:39:18;32.90;;;22.45;;
5225;SDS011;2632;51.666;7.146;2023-12-28T12:41:48;35.35;;;23.90;;
5225;SDS011;2632;51.666;7.146;2023-12-28T12:44:15;32.80;;;22.40;;
5225;SDS011;2632;51.666;7.146;2023-12-28T12:46:44;33.00;;;22.65;;
5225;SDS011;2632;51.666;7.146;2023-12-28T12:49:11;35.90;;;24.50;;
5225;SDS011;2632;51.666;7.146;2023-12-28T12:51:38;33.35;;;22.80;;
5225;SDS011;2632;51.666;7.146;2023-12-28T12:54:07;33.75;;;23.00;;
5225;SDS011;2632;51.666;7.146;2023-12-28T12:56:35;32.90;;;22.50;;
5225;SDS011;2632;51.666;7.146;2023-12-28T12:59:01;32.90;;;22.60;;
5225;SDS011;2632;51.666;7.146;2023-12-28T13:01:28;37.40;;;25.00;;
5225;SDS011;2632;51.666;7.146;2023-12-28T13:03:55;34.70;;;23.70;;
5225;SDS011;2632;51.666;7.146;2023-12-28T13:06:23;32.90;;;22.40;;
5225;SDS011;2632;51.666;7.146;2023-12-28T13:08:50;34.60;;;23.30;;
5225;SDS011;2632;51.666;7.146;2023-12-28T13:11:16;34.77;;;23.40;;
5225;SDS011;2632;51.666;7.146;2023-12-28T13:13:43;37.00;;;24.90;;
5225;SDS011;2632;51.666;7.146;2023-12-28T13:16:10;32.40;;;22.30;;
5225;SDS011;2632;51.666;7.146;2023-12-28T13:18:36;32.50;;;22.50;;
5225;SDS011;2632;51.666;7.146;2023-12-28T13:21:04;32.90;;;22.80;;
5225;SDS011;2632;51.666;7.146;2023-12-28T13:23:30;33.40;;;22.90;;
5225;SDS011;2632;51.666;7.146;2023-12-28T13:25:57;33.10;;;23.00;;
5225;SDS011;2632;51.666;7.146;2023-12-28T13:28:23;32.30;;;22.50;;
5225;SDS011;2632;51.666;7.146;2023-12-28T13:30:50;32.30;;;22.30;;
5225;SDS011;2632;51.666;7.146;2023-12-28T13:33:17;33.90;;;23.40;;
5225;SDS011;2632;51.666;7.146;2023-12-28T13:35:44;31.90;;;22.15;;
5225;SDS011;2632;51.666;7.146;2023-12-28T13:38:11;36.60;;;25.50;;
5225;SDS011;2632;51.666;7.146;2023-12-28T13:40:37;32.70;;;22.50;;
5225;SDS011;2632;51.666;7.146;2023-12-28T13:43:04;33.00;;;22.60;;
5225;SDS011;2632;51.666;7.146;2023-12-28T13:45:31;34.00;;;23.10;;
5225;SDS011;2632;51.666;7.146;2023-12-28T13:47:58;33.60;;;23.30;;
5225;SDS011;2632;51.666;7.146;2023-12-28T13:50:24;32.60;;;22.50;;
5225;SDS011;2632;51.666;7.146;2023-12-28T13:52:51;32.10;;;22.20;;
5225;SDS011;2632;51.666;7.146;2023-12-28T13:55:18;32.00;;;22.10;;
5225;SDS011;2632;51.666;7.146;2023-12-28T13:57:44;32.20;;;22.20;;
5225;SDS011;2632;51.666;7.146;2023-12-28T14:00:11;32.50;;;22.50;;
5225;SDS011;2632;51.666;7.146;2023-12-28T14:02:39;32.95;;;22.70;;
5225;SDS011;2632;51.666;7.146;2023-12-28T14:05:06;34.40;;;23.50;;
5225;SDS011;2632;51.666;7.146;2023-12-28T14:07:34;32.65;;;22.50;;
5225;SDS011;2632;51.666;7.146;2023-12-28T14:10:01;32.70;;;22.60;;
5225;SDS011;2632;51.666;7.146;2023-12-28T14:12:28;32.20;;;22.40;;
5225;SDS011;2632;51.666;7.146;2023-12-28T14:14:54;33.05;;;22.80;;
5225;SDS011;2632;51.666;7.146;2023-12-28T14:17:21;33.80;;;23.30;;
5225;SDS011;2632;51.666;7.146;2023-12-28T14:19:48;33.10;;;22.75;;
5225;SDS011;2632;51.666;7.146;2023-12-28T14:22:15;35.05;;;24.15;;
5225;SDS011;2632;51.666;7.146;2023-12-28T14:24:42;33.10;;;22.80;;
5225;SDS011;2632;51.666;7.146;2023-12-28T14:27:09;32.55;;;22.40;;
5225;SDS011;2632;51.666;7.146;2023-12-28T14:29:38;34.00;;;23.30;;
5225;SDS011;2632;51.666;7.146;2023-12-28T14:32:04;32.40;;;22.30;;
5225;SDS011;2632;51.666;7.146;2023-12-28T14:34:32;32.80;;;22.60;;
5225;SDS011;2632;51.666;7.146;2023-12-28T14:36:59;33.90;;;23.20;;
5225;SDS011;2632;51.666;7.146;2023-12-28T14:39:26;32.25;;;22.30;;
5225;SDS011;2632;51.666;7.146;2023-12-28T14:41:53;32.10;;;22.03;;
5225;SDS011;2632;51.666;7.146;2023-12-28T14:44:19;31.25;;;22.55;;
5225;SDS011;2632;51.666;7.146;2023-12-28T14:46:46;28.95;;;21.55;;
5225;SDS011;2632;51.666;7.146;2023-12-28T14:49:13;31.50;;;22.90;;
5225;SDS011;2632;51.666;7.146;2023-12-28T14:51:40;30.30;;;22.20;;
5225;SDS011;2632;51.666;7.146;2023-12-28T14:54:06;30.40;;;22.40;;
5225;SDS011;2632;51.666;7.146;2023-12-28T14:56:33;28.90;;;21.20;;
5225;SDS011;2632;51.666;7.146;2023-12-28T14:59:13;30.10;;;22.30;;
5225;SDS011;2632;51.666;7.146;2023-12-28T15:01:40;34.10;;;24.80;;
5225;SDS011;2632;51.666;7.146;2023-12-28T15:04:07;30.87;;;22.60;;
5225;SDS011;2632;51.666;7.146;2023-12-28T15:06:34;29.70;;;21.80;;
5225;SDS011;2632;51.666;7.146;2023-12-28T15:09:02;32.65;;;23.70;;
5225;SDS011;2632;51.666;7.146;2023-12-28T15:11:28;30.90;;;22.70;;
5225;SDS011;2632;51.666;7.146;2023-12-28T15:14:13;30.45;;;22.25;;